Choose a state:
Most recent flow and stage for Iowa
(Stations highlighted in red are currently above flood stage)
USGS
station
ID
USGS station name NWS
flood
stage
(ft)
Most recent
stage
(ft)
Most recent
flow
(cfs)
Historical
peaks
(cfs)
Most recent
local
date/time
NWS
station
ID
05387320 Upper Iowa River at Lime Springs, IA 11 3.90

 

  2018-01-21 06:00:00 LSPI4
05387405 Upper Iowa River at Kendallville, IA 11 3.67

 

  2018-01-21 06:00:00 KDVI4
05387440 Upper Iowa River at Bluffton, IA 14 3.43 Ice 16,600 2018-01-21 05:45:00 BLFI4
05387490 Dry Run Creek near Decorah, IA 19 13.72

 

6,290 2018-01-21 05:45:00 DRCI4
05387500 Upper Iowa River at Decorah, IA 12 2.01 Ice 34,100 2018-01-21 05:45:00 DEHI4
05388250 Upper Iowa River near Dorchester, IA 14 7.28 Ice 38,000 2018-01-21 05:00:00 DCHI4
05388310 Waterloo Creek near Dorchester, IA 10 7.52

 

9,720 2018-01-21 06:00:00 DWCI4
05389000 Yellow River near Ion, IA   5.11 Ice 21,200 2018-01-21 05:45:00  
05389400 Bloody Run Creek near Marquette, IA   3.94 8.56 4,620 2018-01-21 06:00:00  
05389500 Mississippi River at McGregor, IA 16 8.45 24,000 276,000 2018-01-21 05:45:00 MCGI4
05411500 Mississippi River at Clayton, IA   12.34

 

  2018-01-21 05:45:00  
05411600 Turkey River at Spillville, IA 9 2.62 Ice 15,300 2018-01-21 05:30:00 SPLI4
05411850 Turkey River near Eldorado, IA 13 5.41 Ice 50,100 2018-01-21 05:45:00 EDRI4
05412020 Turkey River above French Hollow Cr at Elkader, IA 12 5.38 Ice 40,500 2018-01-21 05:45:00 EKDI4
05412400 Volga River at Littleport, IA 12 4.01 Ice 30,000 2018-01-21 05:45:00 VLPI4
05412500 Turkey River at Garber, IA 17 6.85 Ice 66,700 2018-01-21 05:15:00 GRBI4
05414400 Middle Fk Little Maquoketa R nr Rickardsville, IA   9.77

 

23,000 2018-01-21 05:30:00  
05416900 Maquoketa River at Manchester, IA 14 3.62 Ice 26,600 2018-01-21 05:15:00 MCHI4
05418400 North Fork Maquoketa River near Fulton, IA 12 3.79 Ice 25,000 2018-01-21 05:00:00 FLNI4
05418500 Maquoketa River near Maquoketa, IA 24 11.50 Ice 48,000 2018-01-21 05:15:00 MAQI4
05418720 Maquoketa River near Green Island, IA   5.83 Bkw 29,900 2018-01-21 05:00:00  
05420400 Mississippi River at Lock and Dam 13 nr Fulton, IL 16 5.42

 

  2018-01-21 06:00:00 FLTI2
05420460 Beaver Slough at 3rd Street at Clinton, IA   11.07

 

62,100 2018-01-21 05:15:00  
05420500 Mississippi River at Clinton, IA 17 9.60 41,100 307,000 2018-01-21 05:30:00 CMMI4
05420680 Wapsipinicon River near Tripoli, IA 14 7.48 Ice 19,400 2018-01-21 05:45:00 TPLI4
05420850 Little Wapsipinicon River near Oran, IA   82.22

 

12,800 2018-01-21 05:15:00  
05421000 Wapsipinicon River at Independence, IA 12 4.60 Ice 31,100 2018-01-21 05:30:00 IDPI4
05421740 Wapsipinicon River near Anamosa, IA 14.5 5.49 Ice 31,800 2018-01-21 05:15:00 ANSI4
05421890 Silver Creek at Welton, IA   81.20

 

4,820 2018-01-21 06:00:00  
05422000 Wapsipinicon River near De Witt, IA 11 5.55 Ice 40,900 2018-01-21 05:30:00 DEWI4
05422470 Crow Creek at Bettendorf, IA   3.84 5.25 7,700 2018-01-21 05:00:00  
05422600 Duck Creek at DC Golf Course at Davenport, IA 12 3.53 Ice 7,570 2018-01-21 05:45:00 DKII4
05448400 West Main Drainage Ditch 1 and 2 near Britt, IA   75.95

 

450 2018-01-21 05:15:00 BTDI4
05449500 Iowa River near Rowan, IA 12.5 4.18 Ice 8,460 2018-01-21 06:00:00 ROWI4
05451080 South Fork Iowa River near Blairsburg, IA   3.65 Ice 762 2018-01-21 05:00:00 BLII4
05451210 South Fork Iowa River NE of New Providence, IA   2.67 Ice 7,390 2018-01-21 05:45:00 NPVI4
05451500 Iowa River at Marshalltown, IA 19 9.68 Ice 42,000 2018-01-21 06:00:00 MIWI4
05451700 Timber Creek near Marshalltown, IA   2.48 Ice 12,000 2018-01-21 06:00:00 MTWI4
05451770 Iowa River at County Highway E49 near Tama, IA 12.5 1.94 Ice 26,700 2018-01-21 06:00:00 TMAI4
05451900 Richland Creek near Haven, IA   11.24 Ice 12,200 2018-01-21 06:00:00 HAVI4
05451955 Stein Creek near Clutier, IA   66.53

 

12,200 2018-01-21 05:30:00  
05452000 Salt Creek near Elberon, IA   6.09 Ice 36,600 2018-01-21 06:00:00 EBRI4
05452200 Walnut Creek near Hartwick, IA   2.56 Ice 8,580 2018-01-21 06:00:00 HRTI4
05452500 Iowa River near Belle Plaine, IA 15 5.66 Ice 43,000 2018-01-21 06:00:00 BPLI4
05453000 Big Bear Creek at Ladora, IA 20 11.24 Ice 11,200 2018-01-21 06:00:00 LADI4
05453100 Iowa River at Marengo, IA 14 6.21 Ice 51,000 2018-01-21 06:00:00 MROI4
05453200 Price Creek at Amana, IA   80.81

 

5,080 2018-01-21 05:15:00  
05453520 Iowa River below Coralville Dam nr Coralville, IA   49.00 171 39,900 2018-01-21 06:00:00  
05454000 Rapid Creek near Iowa City, IA 9 3.43 0.96 6,700 2018-01-21 05:00:00 IRCI4
05454090 Muddy Creek at Coralville, IA   2.31 2.29 2,920 2018-01-21 05:00:00 CMCI4
05454220 Clear Creek near Oxford, IA 10 3.20 Ice 6,000 2018-01-21 05:45:00 OXFI4
05454300 Clear Creek near Coralville, IA 11 2.39 Ice 10,200 2018-01-21 06:00:00 CRAI4
05454500 Iowa River at Iowa City, IA 22 9.13 209 70,000 2018-01-21 06:00:00 IOWI4
05455010 South Branch Ralston Creek at Iowa City, IA 7 2.80

 

1,070 2018-01-21 05:45:00 IACI4
05455100 Old Mans Creek near Iowa City, IA 12 1.34 Ice 14,600 2018-01-21 06:00:00 IOCI4
05455230 Deep River at Deep River, IA   67.29

 

6,200 2018-01-21 05:15:00  
05455500 English River at Kalona, IA 14 3.64 Ice 36,100 2018-01-21 06:00:00 KALI4
05455700 Iowa River near Lone Tree, IA 15 4.72 Ice 57,100 2018-01-21 06:00:00 LNTI4
05457440 Deer Creek near Carpenter, IA   78.02

 

11,800 2018-01-21 05:45:00  
05457505 Cedar River at Osage, IA   14.50 327 18,200 2017-10-02 09:45:00 OSGI4
05457700 Cedar River at Charles City, IA 12 2.71 Ice 34,600 2018-01-21 05:30:00 CCYI4
05458000 Little Cedar River near Ionia, IA 10 3.07 Ice 24,700 2018-01-21 05:45:00 IONI4
05458300 Cedar River at Waverly, IA 12 4.97 739 52,600 2018-01-21 05:15:00 WVLI4
05458500 Cedar River at Janesville, IA 13 1.97 Ice 53,400 2018-01-21 05:45:00 JANI4
05458900 West Fork Cedar River at Finchford, IA 17 6.27 Ice 31,900 2018-01-21 05:45:00 FNHI4
05459490 Spring Creek near Mason City, IA   80.90

 

5,340 2018-01-21 05:45:00  
05459500 Winnebago River at Mason City, IA 10 3.22 Ice 13,100 2018-01-21 05:30:00 MCWI4
05460000 Clear Lake at Clear Lake, IA   4.49

 

  2018-01-21 06:00:00 CLKI4
05460100 Willow Creek near Mason City, IA   85.72

 

2,380 2018-01-21 05:45:00  
05460400 Shell Rock River near Rockford, IA   8.82 248 17,700 2017-10-02 09:45:00 RKFI4
05462000 Shell Rock River at Shell Rock, IA 13.5 7.67 Ice 60,400 2018-01-21 05:45:00 SHRI4
05463000 Beaver Creek at New Hartford, IA 12.5 2.68 Ice 25,900 2018-01-21 06:00:00 NHRI4
05463050 Cedar River at Cedar Falls, IA 88 78.73 Ice 83,900 2018-01-21 05:45:00 CEDI4
05463500 Black Hawk Creek at Hudson, IA 14 5.60 Ice 22,500 2018-01-21 05:45:00 HUDI4
05464000 Cedar River at Waterloo, IA 13 5.56 Ice 112,000 2018-01-21 06:00:00 ALOI4
05464220 Wolf Creek near Dysart, IA   2.45 Ice 15,700 2018-01-21 05:15:00 DYSI4
05464315 Cedar River at Vinton, IA 15 2.60 Ice 88,000 2018-01-21 05:30:00 VINI4
05464420 Cedar River at Blairs Ferry Road at Palo, IA   2.16 Ice 88,500 2018-01-21 05:15:00 PLOI4
05464480 Cedar River at Edgewood Road at Cedar Rapids, IA   5.05

 

  2018-01-21 06:00:00  
05464500 Cedar River at Cedar Rapids, IA 12 3.32 Ice 140,000 2018-01-21 06:00:00 CIDI4
05464730 Cedar River below Indian Creek at Cedar Rapids, IA   0.95 Ice   2018-01-21 05:30:00  
05464780 Cedar River at Cedar Bluff, IA   5.38 Ice 81,200 2018-01-21 05:00:00  
0546494170 WB Wapsinonoc Cr at College St at West Branch, IA   2.88 4.67 233 2018-01-21 06:00:00  
05464942 Hoover Cr at Hoover Nat Hist Site, West Branch, IA   1.48 Ice 1,650 2018-01-21 05:45:00  
05465000 Cedar River near Conesville, IA 13 6.08 Ice 127,000 2018-01-21 06:00:00 CNEI4
05465500 Iowa River at Wapello, IA 20 11.78 Ice 188,000 2018-01-21 06:00:00 WAPI4
05465700 Iowa River at Oakville, IA 10 1.39 Ice 188,000 2018-01-21 06:00:00 OKVI4
05469860 Mud Lake Drainage Ditch 71 at Jewell, IA   80.99

 

3,700 2018-01-21 05:15:00  
05469990 Keigley Branch near Story City, IA   82.64

 

3,440 2018-01-21 05:30:00  
05470000 South Skunk River near Ames, IA 12.5 2.38 Ice 14,800 2018-01-21 06:00:00 AMEI4
05470500 Squaw Creek at Ames, IA 10 0.69 Ice 24,300 2018-01-21 06:00:00 AMWI4
05471000 South Skunk River below Squaw Creek near Ames, IA 21.5 10.11 Ice 36,200 2018-01-21 06:00:00 AESI4
05471050 South Skunk River at Colfax, IA 18 7.04 Ice 24,000 2018-01-21 05:45:00 CFXI4
05471200 Indian Creek near Mingo, IA   3.82 Ice 23,500 2018-01-21 05:15:00 MGOI4
05471500 South Skunk River near Oskaloosa, IA 24.5 15.22 Ice 37,000 2018-01-21 05:30:00 OOAI4
05472390 Middle Creek near Lacey, IA   77.04

 

9,650 2018-01-21 06:00:00  
05472500 North Skunk River near Sigourney, IA 16 3.60 Ice 27,500 2018-01-21 05:30:00 SIGI4
05473065 Skunk River at Merrimac, IA   2.87 653 44,700 2017-10-19 12:15:00 MERI4
05473400 Cedar Creek near Oakland Mills, IA   3.06 Ice 20,000 2018-01-21 05:30:00 OKMI4
05473450 Big Creek North of Mount Pleasant, IA   4.00 59.6 9,580 2018-01-21 05:45:00 MBCI4
05474000 Skunk River at Augusta, IA 15 0.65 Ice 66,800 2018-01-21 05:30:00 AGSI4
05476500 Des Moines River at Estherville, IA 8 7.42

 

16,000 2018-01-21 05:00:00 ESVI4
05476590 Des Moines River at Emmetsburg, IA 11 1.59 Ice 7,230 2018-01-21 05:15:00 EMTI4
05476750 Des Moines River at Humboldt, IA 10 4.10 Ice 19,000 2018-01-21 05:15:00 HBTI4
05478265 East Fork Des Moines River near Algona, IA 17 6.83 Ice 11,000 2018-01-21 05:15:00 AGNI4
05479000 East Fork Des Moines River at Dakota City, IA 20 8.07 Ice 22,000 2018-01-21 05:00:00 DAKI4
05480080 Lizard Creek near Fort Dodge, IA   5.25

 

  2018-01-21 05:15:00 FLZI4
05480500 Des Moines River at Fort Dodge, IA 10.5 4.48 Ice 36,800 2018-01-21 05:00:00 FODI4
05480820 Boone River near Goldfield, IA   7.91 Ice 7,930 2018-01-21 05:15:00 GLDI4
05480930 White Fox Creek at Clarion, IA   83.77

 

3,290 2018-01-21 05:45:00  
05481000 Boone River near Webster City, IA 14 2.12 Ice 21,500 2018-01-21 05:00:00 WBCI4
05481300 Des Moines River near Stratford, IA 21 5.87 Ice 58,300 2018-01-21 05:00:00 STRI4
05481510 Bluff Creek at Pilot Mound, IA   80.05

 

1,290 2018-01-21 05:15:00  
05481650 Des Moines River near Saylorville, IA   2.42 371 60,000 2018-01-21 05:00:00 SDTI4
05481950 Beaver Creek near Grimes, IA 14 3.46 Ice 14,300 2018-01-21 05:15:00 GRMI4
05482000 Des Moines River at 2nd Avenue at Des Moines, IA 23 12.95 665 60,200 2018-01-21 05:15:00 DMOI4
05482300 North Raccoon River near Sac City, IA 13 6.92 Ice 13,100 2018-01-21 05:15:00 SCRI4
05482315 Black Hawk Lake at Lake View, IA   7.46

 

  2018-01-21 05:15:00 BHLI4
05482430 North Raccoon River near Lanesboro, IA 15 8.37

 

  2018-01-21 05:15:00 LKCI4
05482500 North Raccoon River near Jefferson, IA 19 4.75 Ice 29,100 2018-01-21 05:15:00 EFWI4
05483318 Brushy Fork Creek near Templeton, IA   67.58

 

19,000 2018-01-21 05:00:00  
05483349 Middle Raccoon River Tributary at Carroll, IA   15.51

 

4,600 2018-01-21 05:15:00  
05483450 Middle Raccoon River near Bayard, IA   10.08 Ice 27,500 2018-01-21 05:15:00 BAYI4
05483470 Lake Panorama at Panora, IA   45.54

 

  2018-01-21 05:15:00 PNLI4
05483600 Middle Raccoon River at Panora, IA   4.16 53.6 22,400 2018-01-21 05:15:00 PANI4
05484000 South Raccoon River at Redfield, IA 20 3.33 Ice 44,000 2018-01-21 05:45:00 REDI4
05484500 Raccoon River at Van Meter, IA 17 3.14 Ice 70,100 2018-01-21 05:00:00 VNMI4
05484600 Raccoon River near West Des Moines, IA   27.14 Ice 2018-01-21 05:45:00 WDMI4
05484650 Raccoon River at 63rd Street at Des Moines, IA 36 22.09 Ice 66,000 2018-01-21 05:15:00 DMWI4
05484800 Walnut Creek at Des Moines, IA 14 3.45 Ice 12,500 2018-01-21 05:45:00 DOSI4
05484900 Raccoon River at Fleur Drive at Des Moines, IA 12 1.77 Ice 67,900 2018-01-21 05:45:00 DEMI4
05485500 Des Moines River blw Raccoon Riv at Des Moines, IA 24 10.15 959 116,000 2018-01-21 05:00:00 DESI4
05485605 Fourmile Creek near Ankeny, IA DS1   1.16 Ice 4,730 2018-01-21 05:15:00 ANKI4
05485640 Fourmile Creek at Des Moines, IA 12.5 3.87 Ice 9,620 2018-01-21 05:30:00 DFMI4
05486000 North River near Norwalk, IA 22 4.92 Ice 32,000 2018-01-21 05:15:00 NRWI4
05486490 Middle River near Indianola, IA 19.5 7.13 Ice 34,000 2018-01-21 05:15:00 IDNI4
05487470 South River near Ackworth, IA 29 6.02 Ice 38,100 2018-01-21 05:15:00 AKWI4
05487520 Des Moines River near Swan, IA   44.91 Ice 55,900 2018-01-21 05:15:00 SWNI4
05487980 White Breast Creek near Dallas, IA   6.52 Ice 37,300 2018-01-21 05:15:00 DLLI4
05488110 Des Moines River near Pella, IA   83.42 494 105,000 2018-01-21 05:15:00 RRDI4
05488200 English Creek near Knoxville, IA 21 8.34 Ice 28,000 2018-01-21 05:15:00 KECI4
05488500 Des Moines River near Tracy, IA 14 2.62 1,040 155,000 2018-01-21 05:15:00 TRCI4
05489000 Cedar Creek near Bussey, IA 25 4.37 Ice 96,000 2018-01-21 05:15:00 BSSI4
05489490 Bear Creek at Ottumwa, IA   79.68

 

4,030 2018-01-21 05:45:00  
05489500 Des Moines River at Ottumwa, IA 11.5 1.38 Ice 140,000 2018-01-21 05:50:00 OTMI4
05490500 Des Moines River at Keosauqua, IA 22 10.49 Ice 146,000 2018-01-21 05:15:00 KEQI4
05494300 Fox River at Bloomfield, IA   2.91 Bkw 13,100 2018-01-21 06:00:00 BMFI4
06483290 Rock River below Tom Creek at Rock Rapids, IA 13 7.99 Ice 33,800 2018-01-21 05:15:00 RAPI4
06483495 Burr Oak Creek near Perkins, IA   10.36

 

6,400 2018-01-21 05:15:00  
06483500 Rock River near Rock Valley, IA 16 5.40 Ice 60,600 2018-01-21 06:00:00 RKVI4
06485500 BIG SIOUX R AT AKRON,IA 16 7.09 Ice 108,000 2018-01-21 06:00:00 AKRI4
06485950 BIG SIOUX RIVER AT SIOUX CITY, IA 32 10.54 Ice 11,000 2018-01-21 05:30:00 SXCI4
06486000 Missouri River at Sioux City, IA 30 10.23 24,000 441,000 2018-01-21 06:00:00 SSCN1
06599900 Perry Creek near Millnerville, IA 8 1.23

 

4,690 2018-01-21 05:45:00 PCMI4
06599950 Perry Creek near Hinton, IA 28 16.92 72.0 6,410 2018-01-21 05:15:00 PCHI4
06600000 Perry Creek at 38th Street at Sioux City, IA 24 6.93

 

9,600 2018-01-21 06:00:00 SIOI4
06600030 Little Floyd River near Sanborn, IA   81.16

 

214 2018-01-21 05:15:00  
06600100 Floyd River at Alton, IA 12 5.79 76.2 45,500 2018-01-21 06:00:00 ALTI4
06600500 Floyd River at James, IA 26 9.89 Ice 71,500 2018-01-21 06:00:00 JMEI4
06601200 Missouri River at Decatur, NE 35 18.74 24,300 191,000 2018-01-21 06:00:00 DCTN1
06602020 West Fork Ditch at Hornick, IA 20 7.97 Ice 12,400 2018-01-21 06:00:00 HOKI4
06602190 Elliott Creek at Lawton, IA   72.60

 

3,150 2018-01-21 05:15:00  
06602400 Monona-Harrison Ditch near Turin, IA 23 5.71 Ice 21,000 2018-01-21 06:00:00 TRNI4
06604000 Spirit Lake near Orleans, IA 17 14.18

 

  2018-01-21 05:15:00 SLKI4
06604200 West Okoboji Lake at Lakeside Lab near Milford, IA 7.5 4.19

 

  2018-01-21 05:45:00 OBJI4
06604440 Little Sioux River at 300th St near Spencer, IA 10 5.00 135 6,020 2017-10-02 10:15:00 LSSI4
06605000 Ocheyedan River near Spencer, IA 8 2.91 Ice 26,000 2018-01-21 05:45:00 SPOI4
06605750 Willow Creek near Cornell, IA   82.01

 

4,200 2018-01-21 05:15:00  
06605850 Little Sioux River at Linn Grove, IA 18 15.50 Ice 22,500 2018-01-21 06:00:00 LNNI4
06606600 Little Sioux River at Correctionville, IA 19 5.49 Ice 29,800 2018-01-21 06:00:00 CRRI4
06607200 Maple River at Mapleton, IA 21 5.91 Ice 20,800 2018-01-21 06:00:00 MAPI4
06607500 Little Sioux River near Turin, IA 25 8.35 Ice 32,000 2018-01-21 06:00:00 TURI4
06608500 Soldier River at Pisgah, IA 28 4.48 Ice 34,700 2018-01-21 06:00:00 PSGI4
06609100 Missouri River at Blair, NE 26.5 13.10

 

  2018-01-21 06:00:00 BLAN1
06609500 Boyer River at Logan, IA 21 5.20 Ice 33,600 2018-01-21 06:00:00 LGNI4
06609560 Willow Creek near Soldier, IA 81.5 66.18

 

6,840 2018-01-21 05:00:00 WCSI4
06610000 Missouri River at Omaha, NE 29 13.05 27,600 396,000 2018-01-21 06:00:00 OMHN1
06610505 Missouri River near Council Bluffs, IA   15.98

 

  2009-09-30 23:30:00  
06805600 Missouri River at Plattsmouth, NE 26 13.79

 

  2018-01-21 05:15:00 PTMN1
06807000 Missouri River at Nebraska City, NE 18 8.13 32,200 414,000 2018-01-21 06:00:00 NEBN1
06807410 West Nishnabotna River at Hancock, IA 14 3.09 Ice 30,100 2018-01-21 06:00:00 HNKI4
06808500 West Nishnabotna River at Randolph, IA 19 9.39 Ice 40,800 2018-01-21 06:00:00 RDPI4
06808820 West Nishnabotna River near Riverton, IA   9.84 460 23,500 2017-10-02 10:30:00 WNSI4
06809210 East Nishnabotna River near Atlantic, IA 19 3.44 Ice 41,400 2018-01-21 06:00:00 ATCI4
06809500 East Nishnabotna River at Red Oak, IA 18 6.81 Ice 60,500 2018-01-21 06:00:00 RDOI4
06810000 Nishnabotna River above Hamburg, IA 25 9.50 Ice 65,100 2018-01-21 06:00:00 HMBI4
06810030 Main Ditch Number Six at Levee Rd near Hamburg, IA   897.25

 

  2018-01-21 05:15:00  
06810070 Missouri River at Brownville, NE 33 23.01

 

  2018-01-21 05:15:00 BRON1
06811760 Tarkio River near Elliott, IA   2.57

 

5,000 2018-01-21 05:45:00  
06811800 East Tarkio Creek near Stanton, IA   0.52

 

4,790 2018-01-21 05:30:00  
06811875 Snake Creek near Yorktown, IA 92.5 80.54

 

3,080 2018-01-21 05:45:00 SKYI4
06813500 Missouri River at Rulo, NE 17 6.82 31,100 358,000 2018-01-21 05:30:00 RULN1
06816290 West Nodaway River at Massena, IA   65.85

 

4,850 2018-01-21 05:15:00  
06817000 Nodaway River at Clarinda, IA 23 10.74 Ice 47,900 2018-01-21 05:15:00 ICLI4
06819185 East Fork 102 River at Bedford, IA 24 10.74 Ice 10,300 2018-01-21 05:45:00 BDFI4
06898000 Thompson River at Davis City, IA 12 0.84 Ice 57,000 2018-01-21 05:00:00 DVSI4
06903400 Chariton River near Chariton, IA 19.5 4.28 Ice 37,700 2018-01-21 05:45:00 CHTI4
06903700 South Fork Chariton River near Promise City, IA 25 2.94 Ice 70,600 2018-01-21 05:45:00 PRMI4
06903880 Rathbun Lake near Rathbun, IA   903.00

 

  2018-01-21 05:45:00 RADI4
06903900 Chariton River near Rathbun, IA   2.00 1.06 21,800 2018-01-21 06:00:00 RABI4
06904010 Chariton River near Moulton, IA 36 18.54 Ice 21,200 2018-01-21 05:45:00 MOLI4
402351091222701 MISSISSIPPI RIVER AT LOCK & DAM 19 (CORPS)   3.46

 

  2018-01-21 05:40:00  
404753091053001 MISSISSIPPI RIVER AT BURLINGTON, IA (CORPS)   8.56

 

  2018-01-21 05:00:00  
405256091012601 MISSISSIPPI RIVER AT LOCK & DAM 18 (CORPS)   2.56

 

  2018-01-21 05:30:00  
412327091031801 MISSISSIPPI RIVER AT MUSCATINE, IA (CORPS)   6.95

 

  2018-01-21 05:15:00  
413428090241101 MISSISSIPPI RIVER AT LOCK & DAM 14 (CORPS)   4.64

 

  2018-01-21 05:30:00  
421539090252101 MISSISSIPPI RIVER AT LOCK & DAM 12 (CORPS)   6.35

 

  2018-01-21 05:30:00  
422958090391101 MISSISSIPPI RIVER AT DUBUQUE, IA (CORPS)   8.46

 

  2018-01-21 05:30:00